Time;durP1;ratioP1;P1;durP2;ratioP2;P2;SDS_P1;SDS_P2;PMS_P1;PMS_P2;Temp;Humidity;BMP_temperature;BMP_pressure;BME280_temperature;BME280_humidity;BME280_pressure;Samples;Min_cycle;Max_cycle;Signal;HPM_P1;HPM_P2
2021/03/01 00:01:09;;;;;;;3.52;3.22;;;;;;;1.37;100.00;100462.42;1821679;77;20978;-45
2021/03/01 00:03:37;;;;;;;7.37;4.10;;;;;;;1.37;100.00;100462.42;1759464;80;22284;-46
2021/03/01 00:09:02;;;;;;;4.78;4.12;;;;;;;1.40;100.00;100465.09;1787095;78;22702;-46
2021/03/01 00:11:30;;;;;;;5.35;4.17;;;;;;;1.34;100.00;100481.48;1769333;80;20967;-46
2021/03/01 00:14:00;;;;;;;5.35;4.85;;;;;;;1.28;100.00;100463.34;1755344;80;21021;-47
2021/03/01 00:16:27;;;;;;;6.83;4.00;;;;;;;1.27;100.00;100463.31;1755772;80;21010;-46
2021/03/01 00:18:56;;;;;;;5.45;4.30;;;;;;;1.25;100.00;100462.45;1755848;80;21018;-46
2021/03/01 00:21:24;;;;;;;4.87;4.00;;;;;;;1.27;100.00;100461.98;1755888;80;20991;-46
2021/03/01 00:23:53;;;;;;;6.35;3.92;;;;;;;1.27;100.00;100452.69;1755765;80;20969;-45
2021/03/01 00:26:21;;;;;;;5.67;4.00;;;;;;;1.26;100.00;100466.87;1756274;80;21417;-47
2021/03/01 00:28:49;;;;;;;4.40;4.00;;;;;;;1.27;100.00;100458.00;1755162;80;21538;-45
2021/03/01 00:31:17;;;;;;;4.42;4.00;;;;;;;1.26;100.00;100456.23;1755037;80;21556;-45
2021/03/01 00:33:45;;;;;;;4.20;3.80;;;;;;;1.28;100.00;100455.37;1756445;80;21538;-46
2021/03/01 00:36:15;;;;;;;4.75;4.08;;;;;;;1.28;100.00;100460.69;1755391;80;21112;-46
2021/03/01 00:38:43;;;;;;;4.33;3.92;;;;;;;1.28;100.00;100477.07;1755921;80;22288;-45
2021/03/01 00:41:11;;;;;;;5.60;4.17;;;;;;;1.30;100.00;100484.14;1755972;80;20998;-45
2021/03/01 00:43:39;;;;;;;4.90;4.33;;;;;;;1.32;100.00;100489.44;1756063;80;21163;-45
2021/03/01 00:46:06;;;;;;;4.97;4.47;;;;;;;1.29;100.00;100481.48;1756142;80;21140;-45
2021/03/01 00:48:35;;;;;;;4.92;4.40;;;;;;;1.27;100.00;100476.59;1756237;80;21574;-46
2021/03/01 00:51:04;;;;;;;4.50;3.87;;;;;;;1.26;100.00;100477.49;1756069;80;21290;-45
2021/03/01 00:53:32;;;;;;;5.35;4.70;;;;;;;1.23;100.00;100489.47;1755493;80;20962;-45
2021/03/01 00:56:00;;;;;;;4.30;3.90;;;;;;;1.16;100.00;100495.66;1755951;80;21594;-46
2021/03/01 00:58:28;;;;;;;4.83;4.42;;;;;;;1.14;100.00;100508.94;1755829;80;21513;-45
2021/03/01 01:00:56;;;;;;;6.03;4.92;;;;;;;1.18;100.00;100516.48;1702079;80;20985;-46
2021/03/01 01:03:24;;;;;;;5.00;4.42;;;;;;;1.19;100.00;100526.22;1717559;81;21303;-45
2021/03/01 01:06:10;;;;;;;4.72;4.20;;;;;;;1.20;100.00;100541.27;1754905;80;21017;-45
2021/03/01 01:08:38;;;;;;;5.50;4.62;;;;;;;1.22;100.00;100551.44;1745137;80;20999;-45
2021/03/01 01:11:06;;;;;;;4.47;4.05;;;;;;;1.23;100.00;100551.91;1743051;80;20943;-45
2021/03/01 01:13:34;;;;;;;4.90;3.83;;;;;;;1.26;100.00;100562.52;1742588;81;21022;-46
2021/03/01 01:16:02;;;;;;;5.12;4.45;;;;;;;1.24;100.00;100565.18;1742316;80;22804;-46
2021/03/01 01:18:30;;;;;;;7.08;4.92;;;;;;;1.24;100.00;100564.30;1742229;80;21129;-46
2021/03/01 01:20:59;;;;;;;5.20;4.58;;;;;;;1.25;100.00;100575.36;1742029;80;21646;-47
2021/03/01 01:23:27;;;;;;;5.03;4.35;;;;;;;1.29;100.00;100579.80;1741712;81;21090;-45
2021/03/01 01:25:55;;;;;;;5.15;4.30;;;;;;;1.32;100.00;100578.45;1742853;80;21133;-45
2021/03/01 01:28:23;;;;;;;5.55;4.80;;;;;;;1.33;100.00;100582.87;1722616;81;21212;-46
2021/03/01 01:30:51;;;;;;;4.60;4.20;;;;;;;1.30;100.00;100597.51;1742619;80;21078;-44
2021/03/01 01:33:19;;;;;;;5.85;5.12;;;;;;;1.25;100.00;100604.59;1742127;80;20986;-44
2021/03/01 01:35:47;;;;;;;6.00;4.92;;;;;;;1.23;100.00;100599.73;1742429;80;21114;-44
2021/03/01 01:38:15;;;;;;;5.83;4.90;;;;;;;1.21;100.00;100610.77;1742015;81;20998;-45
2021/03/01 01:40:44;;;;;;;5.03;4.30;;;;;;;1.22;100.00;100605.90;1742647;80;21325;-46
2021/03/01 01:43:12;;;;;;;4.92;4.35;;;;;;;1.21;100.00;100607.67;1742524;81;21133;-44
2021/03/01 01:45:40;;;;;;;4.92;4.33;;;;;;;1.18;100.00;100609.46;1742274;80;21101;-45
2021/03/01 01:48:09;;;;;;;5.75;4.83;;;;;;;1.13;100.00;100605.91;1742730;80;21071;-45
2021/03/01 01:50:37;;;;;;;4.85;4.35;;;;;;;1.14;100.00;100605.02;1741655;80;21086;-45
2021/03/01 01:53:06;;;;;;;5.47;4.80;;;;;;;1.16;100.00;100604.56;1742003;81;21446;-46
2021/03/01 01:55:34;;;;;;;4.70;4.12;;;;;;;1.21;100.00;100605.46;1741551;80;21622;-45
2021/03/01 01:58:02;;;;;;;6.08;4.83;;;;;;;1.21;100.00;100598.38;1741584;81;21172;-45
2021/03/01 02:00:45;;;;;;;5.45;4.92;;;;;;;1.19;100.00;100595.29;1742179;80;21208;-45
2021/03/01 02:03:34;;;;;;;6.03;4.17;;;;;;;1.24;100.00;100596.18;1741260;81;21551;-46
2021/03/01 02:06:06;;;;;;;4.62;4.20;;;;;;;1.30;100.00;100602.83;1724841;81;21396;-44
2021/03/01 02:08:49;;;;;;;5.45;4.25;;;;;;;1.26;100.00;100594.40;1742417;80;21024;-45
2021/03/01 02:11:37;;;;;;;5.25;4.75;;;;;;;1.24;100.00;100601.50;1742304;80;21704;-45
2021/03/01 02:14:13;;;;;;;4.90;4.33;;;;;;;1.23;100.00;100583.78;1742141;81;20954;-46
2021/03/01 02:16:49;;;;;;;5.28;4.78;;;;;;;1.30;100.00;100594.41;1801211;76;22754;-45
2021/03/01 02:19:17;;;;;;;5.72;4.40;;;;;;;1.28;100.00;100601.95;1782957;79;21112;-47
2021/03/01 02:21:45;;;;;;;5.22;4.72;;;;;;;1.28;100.00;100597.97;1783050;79;21143;-45
2021/03/01 02:24:15;;;;;;;4.08;3.77;;;;;;;1.31;100.00;100608.58;1784583;79;21637;-45
2021/03/01 02:26:45;;;;;;;5.30;4.28;;;;;;;1.35;100.00;100620.98;1784435;79;20969;-45
2021/03/01 02:29:15;;;;;;;5.00;4.25;;;;;;;1.35;100.00;100623.65;1782780;79;21005;-45
2021/03/01 02:31:45;;;;;;;4.60;4.12;;;;;;;1.39;100.00;100633.41;1783812;78;21383;-46
2021/03/01 02:34:18;;;;;;;5.47;4.97;;;;;;;1.37;100.00;100640.91;1782635;79;21888;-46
2021/03/01 02:36:56;;;;;;;5.45;4.90;;;;;;;1.34;100.00;100643.14;1784224;79;21002;-45
2021/03/01 02:39:33;;;;;;;4.90;4.30;;;;;;;1.35;100.00;100646.23;1839681;75;28389;-45
2021/03/01 02:42:01;;;;;;;4.67;4.28;;;;;;;1.30;100.00;100657.30;1787467;77;21202;-46
2021/03/01 02:44:29;;;;;;;4.40;4.00;;;;;;;1.36;100.00;100666.61;1785390;79;21465;-45
2021/03/01 02:46:57;;;;;;;9.73;4.08;;;;;;;1.36;100.00;100661.29;1789447;77;21211;-46
2021/03/01 02:49:25;;;;;;;4.17;3.62;;;;;;;1.35;100.00;100666.16;1757485;78;21017;-46
2021/03/01 02:51:53;;;;;;;5.15;4.58;;;;;;;1.33;100.00;100666.58;1789003;77;21695;-45
2021/03/01 02:54:23;;;;;;;4.72;4.33;;;;;;;1.27;100.00;100669.23;1787541;77;20986;-45
2021/03/01 02:56:51;;;;;;;5.08;4.47;;;;;;;1.22;100.00;100677.19;1789107;79;22285;-45
2021/03/01 02:59:21;;;;;;;6.22;4.85;;;;;;;1.20;100.00;100672.77;1787176;79;21407;-44
2021/03/01 03:01:49;;;;;;;4.37;3.98;;;;;;;1.20;100.00;100684.28;1788971;79;21029;-45
2021/03/01 03:04:17;;;;;;;4.67;3.83;;;;;;;1.18;100.00;100685.17;1787577;79;20998;-44
2021/03/01 03:06:45;;;;;;;5.55;4.95;;;;;;;1.15;100.00;100683.83;1786530;77;21096;-45
2021/03/01 03:09:13;;;;;;;6.75;4.90;;;;;;;1.14;100.00;100691.36;1785556;77;22283;-45
2021/03/01 03:11:43;;;;;;;5.80;4.85;;;;;;;1.14;100.00;100705.97;1785787;77;21510;-45
2021/03/01 03:14:19;;;;;;;6.22;4.80;;;;;;;1.10;100.00;100712.14;1788305;77;20963;-46
2021/03/01 03:16:50;;;;;;;4.62;4.22;;;;;;;1.11;100.00;100709.92;1788778;79;21104;-45
2021/03/01 03:19:18;;;;;;;5.10;4.57;;;;;;;1.13;100.00;100722.80;1779030;78;21558;-45
2021/03/01 03:21:46;;;;;;;6.03;5.42;;;;;;;1.12;100.00;100723.65;1784604;77;21947;-45
2021/03/01 03:24:14;;;;;;;6.28;5.65;;;;;;;1.12;100.00;100716.59;1785316;79;21548;-45
2021/03/01 03:26:42;;;;;;;6.25;5.20;;;;;;;1.12;100.00;100722.31;1785852;77;21127;-45
2021/03/01 03:29:11;;;;;;;5.78;5.10;;;;;;;1.13;100.00;100720.14;1784907;77;21151;-45
2021/03/01 03:31:39;;;;;;;5.10;4.60;;;;;;;1.14;100.00;100719.25;1788071;77;21188;-45
2021/03/01 03:34:07;;;;;;;6.33;5.35;;;;;;;1.14;100.00;100723.23;1786107;77;22414;-45
2021/03/01 03:36:44;;;;;;;5.45;4.95;;;;;;;1.13;100.00;100728.99;1788269;77;20989;-45
2021/03/01 03:39:14;;;;;;;4.78;4.35;;;;;;;1.14;100.00;100721.91;1784729;79;21151;-46
2021/03/01 03:41:42;;;;;;;5.37;4.78;;;;;;;1.17;100.00;100721.89;1758046;79;21001;-45
2021/03/01 03:44:11;;;;;;;5.90;5.35;;;;;;;1.14;100.00;100721.91;1785471;77;20981;-46
2021/03/01 03:46:39;;;;;;;5.12;4.65;;;;;;;1.16;100.00;100723.67;1789345;77;21399;-45
2021/03/01 03:49:12;;;;;;;6.15;5.15;;;;;;;1.18;100.00;100726.36;1786984;77;21179;-45
2021/03/01 03:51:40;;;;;;;6.08;4.62;;;;;;;1.16;100.00;100720.12;1786644;77;20977;-45
2021/03/01 03:54:20;;;;;;;6.72;5.25;;;;;;;1.13;100.00;100724.13;1776669;79;21115;-46
2021/03/01 03:56:54;;;;;;;5.62;5.00;;;;;;;1.09;100.00;100734.28;1787083;77;20989;-46
2021/03/01 03:59:28;;;;;;;5.65;5.15;;;;;;;1.08;100.00;100729.86;1785323;77;21140;-46
2021/03/01 04:01:55;;;;;;;5.97;5.37;;;;;;;1.03;100.00;100728.06;1785310;77;21028;-45
2021/03/01 04:04:24;;;;;;;6.67;5.25;;;;;;;1.03;100.00;100738.69;1784663;77;20974;-46
2021/03/01 04:06:53;;;;;;;5.67;5.05;;;;;;;1.05;100.00;100746.20;1787604;77;21104;-49
2021/03/01 04:09:21;;;;;;;6.70;5.30;;;;;;;1.07;100.00;100744.02;1786886;77;21131;-45
2021/03/01 04:11:50;;;;;;;7.80;5.65;;;;;;;1.05;100.00;100740.89;1783268;77;22196;-46
2021/03/01 04:14:24;;;;;;;7.67;5.62;;;;;;;1.05;100.00;100748.86;1787840;77;21598;-45
2021/03/01 04:16:55;;;;;;;8.13;6.40;;;;;;;1.05;100.00;100750.19;1786965;77;21582;-45
2021/03/01 04:19:25;;;;;;;6.77;5.07;;;;;;;1.03;100.00;100749.31;1785087;79;21182;-45
2021/03/01 04:21:57;;;;;;;7.15;6.12;;;;;;;1.08;100.00;100753.77;1784856;77;20998;-47
2021/03/01 04:24:25;;;;;;;7.70;5.78;;;;;;;1.04;100.00;100759.05;1785884;78;21210;-45
2021/03/01 04:26:53;;;;;;;5.85;5.25;;;;;;;1.04;100.00;100759.05;1775291;78;21108;-45
2021/03/01 04:29:21;;;;;;;7.75;5.75;;;;;;;1.05;100.00;100760.81;1786186;77;21582;-44
2021/03/01 04:31:50;;;;;;;7.05;5.67;;;;;;;1.08;100.00;100759.08;1784602;77;20970;-44
2021/03/01 04:34:20;;;;;;;7.00;6.30;;;;;;;1.09;100.00;100763.50;1784987;77;21584;-46
2021/03/01 04:36:48;;;;;;;7.85;6.92;;;;;;;1.09;100.00;100764.39;1757351;78;21392;-50
2021/03/01 04:39:18;;;;;;;8.53;6.65;;;;;;;1.12;100.00;100766.16;1785863;77;21025;-45
2021/03/01 04:41:46;;;;;;;7.87;6.47;;;;;;;1.11;100.00;100767.92;1787446;77;21554;-45
2021/03/01 04:44:16;;;;;;;10.30;7.20;;;;;;;1.08;100.00;100764.39;1785866;77;21648;-46
2021/03/01 04:46:51;;;;;;;7.85;6.87;;;;;;;1.10;100.00;100783.87;1786671;77;21541;-46
2021/03/01 04:49:21;;;;;;;9.90;7.17;;;;;;;1.10;100.00;100785.19;1785481;79;22169;-45
2021/03/01 04:51:49;;;;;;;10.13;7.60;;;;;;;1.09;100.00;100788.73;1793589;77;21108;-46
2021/03/01 04:54:17;;;;;;;7.97;7.22;;;;;;;1.10;100.00;100792.72;1786065;77;20994;-45
2021/03/01 04:56:45;;;;;;;7.80;6.67;;;;;;;1.11;100.00;100793.60;1785025;79;21140;-47
2021/03/01 04:59:18;;;;;;;9.08;7.25;;;;;;;1.13;100.00;100803.81;1785128;77;21113;-46
2021/03/01 05:01:49;;;;;;;8.18;6.47;;;;;;;1.13;100.00;100798.50;1786944;79;21433;-45
2021/03/01 05:04:17;;;;;;;8.03;6.67;;;;;;;1.12;100.00;100803.34;1786787;77;21123;-47
2021/03/01 05:06:46;;;;;;;8.00;6.30;;;;;;;1.11;100.00;100817.52;1785888;77;21013;-48
2021/03/01 05:09:14;;;;;;;8.70;7.62;;;;;;;1.14;100.00;100822.86;1786147;77;21155;-46
2021/03/01 05:11:42;;;;;;;8.23;6.55;;;;;;;1.12;100.00;100825.52;1787070;77;20950;-45
2021/03/01 05:14:10;;;;;;;8.35;6.60;;;;;;;1.12;100.00;100833.48;1786253;77;21381;-46
2021/03/01 05:16:38;;;;;;;8.80;7.00;;;;;;;1.10;100.00;100836.99;1784905;77;21037;-45
2021/03/01 05:19:06;;;;;;;9.55;6.30;;;;;;;1.10;100.00;100836.55;1784992;79;20986;-45
2021/03/01 05:21:35;;;;;;;7.92;6.72;;;;;;;1.13;100.00;100845.00;1787764;77;20993;-49
2021/03/01 05:24:04;;;;;;;9.45;7.85;;;;;;;1.11;100.00;100850.28;1789990;79;21100;-46
2021/03/01 05:26:32;;;;;;;11.93;7.12;;;;;;;1.11;100.00;100849.39;1787151;77;21209;-46
2021/03/01 05:29:00;;;;;;;9.65;7.45;;;;;;;1.12;100.00;100848.50;1788495;77;21590;-46
2021/03/01 05:31:28;;;;;;;12.90;7.87;;;;;;;1.11;100.00;100854.26;1757326;78;21009;-46
2021/03/01 05:33:56;;;;;;;9.50;7.62;;;;;;;1.14;100.00;100861.38;1785615;77;21664;-46
2021/03/01 05:36:24;;;;;;;9.10;6.55;;;;;;;1.15;100.00;100860.05;1787065;77;21550;-46
2021/03/01 05:38:53;;;;;;;12.98;7.60;;;;;;;1.16;100.00;100868.91;1785239;77;21370;-45
2021/03/01 05:41:21;;;;;;;10.13;7.78;;;;;;;1.14;100.00;100872.89;1790797;77;20997;-46
2021/03/01 05:43:49;;;;;;;8.40;7.28;;;;;;;1.15;100.00;100888.38;1765664;77;21001;-45
2021/03/01 05:46:17;;;;;;;11.25;8.40;;;;;;;1.12;100.00;100889.68;1788406;77;20997;-45
2021/03/01 05:48:46;;;;;;;11.35;8.33;;;;;;;1.11;100.00;100889.23;1788127;77;20982;-46
2021/03/01 05:51:15;;;;;;;14.30;8.38;;;;;;;1.14;100.00;100895.91;1789699;77;21253;-46
2021/03/01 05:53:44;;;;;;;10.65;7.70;;;;;;;1.14;100.00;100905.21;1789013;77;21103;-47
2021/03/01 05:56:12;;;;;;;11.97;7.87;;;;;;;1.17;100.00;100903.89;1786335;79;21017;-46
2021/03/01 05:58:40;;;;;;;9.30;7.75;;;;;;;1.18;100.00;100913.66;1761448;78;21558;-43
2021/03/01 06:01:09;;;;;;;12.05;8.83;;;;;;;1.22;100.00;100914.11;1785971;77;21109;-45
2021/03/01 06:03:37;;;;;;;12.88;7.80;;;;;;;1.24;100.00;100923.00;1788530;77;21373;-45
2021/03/01 06:06:06;;;;;;;12.18;8.15;;;;;;;1.28;100.00;100924.80;1789737;77;21037;-51
2021/03/01 06:08:34;;;;;;;13.62;7.92;;;;;;;1.31;100.00;100924.80;1788114;77;21088;-46
2021/03/01 06:11:04;;;;;;;11.65;8.13;;;;;;;1.33;100.00;100943.41;1791149;77;21158;-45
2021/03/01 06:13:33;;;;;;;12.05;8.20;;;;;;;1.30;100.00;100949.60;1786989;77;21296;-46
2021/03/01 06:16:02;;;;;;;13.22;8.95;;;;;;;1.29;100.00;100946.50;1787517;78;21375;-46
2021/03/01 06:18:30;;;;;;;12.10;8.85;;;;;;;1.27;100.00;100953.55;1789363;77;21477;-47
2021/03/01 06:21:15;;;;;;;9.93;7.97;;;;;;;1.27;100.00;100961.08;1788143;77;22002;-47
2021/03/01 06:23:46;;;;;;;12.53;9.80;;;;;;;1.24;100.00;100950.45;1788554;79;20994;-49
2021/03/01 06:26:24;;;;;;;13.08;8.73;;;;;;;1.24;100.00;100958.87;1785441;77;21125;-46
2021/03/01 06:29:07;;;;;;;13.72;8.98;;;;;;;1.23;100.00;100966.39;1786465;77;21206;-44
2021/03/01 06:31:44;;;;;;;10.55;9.40;;;;;;;1.21;100.00;100976.10;1785730;77;21605;-46
2021/03/01 06:34:30;;;;;;;10.70;8.45;;;;;;;1.18;100.00;100975.66;1787036;78;20990;-46
2021/03/01 06:37:15;;;;;;;14.00;9.08;;;;;;;1.18;100.00;100978.75;1786918;77;21236;-49
2021/03/01 06:39:52;;;;;;;13.40;9.08;;;;;;;1.19;100.00;100991.16;1783881;78;21132;-48
2021/03/01 06:42:26;;;;;;;12.18;9.03;;;;;;;1.21;100.00;100988.95;1784520;77;22327;-49
2021/03/01 06:45:04;;;;;;;14.93;10.28;;;;;;;1.23;100.00;100994.30;1782862;77;21148;-48
2021/03/01 06:47:47;;;;;;;15.75;10.98;;;;;;;1.29;100.00;101000.98;1779334;78;21687;-48
2021/03/01 06:50:36;;;;;;;18.65;12.07;;;;;;;1.30;100.00;100997.44;1780757;77;21103;-48
2021/03/01 06:53:15;;;;;;;14.25;11.05;;;;;;;1.33;100.00;101006.74;1781485;77;21565;-49
2021/03/01 06:56:06;;;;;;;13.40;9.85;;;;;;;1.32;100.00;101019.59;1783425;77;21215;-48
2021/03/01 06:58:36;;;;;;;13.20;10.23;;;;;;;1.33;100.00;101012.50;1782452;79;21186;-50
2021/03/01 07:01:16;;;;;;;17.62;11.10;;;;;;;1.36;100.00;101017.86;1781505;77;21123;-49
2021/03/01 07:03:49;;;;;;;16.07;11.00;;;;;;;1.37;100.00;101019.63;1782839;79;21028;-51
2021/03/01 07:06:19;;;;;;;14.05;10.50;;;;;;;1.40;100.00;101024.53;1782616;77;21127;-49
2021/03/01 07:08:49;;;;;;;11.45;9.00;;;;;;;1.39;100.00;101021.44;1781351;77;21468;-47
2021/03/01 07:11:29;;;;;;;11.03;8.90;;;;;;;1.40;100.00;101029.85;1784973;77;21214;-48
2021/03/01 07:14:08;;;;;;;13.78;9.25;;;;;;;1.39;100.00;101032.06;1782772;79;21502;-48
2021/03/01 07:16:46;;;;;;;11.57;8.93;;;;;;;1.41;100.00;101032.95;1784506;77;21152;-49
2021/03/01 07:22:05;;;;;;;11.70;9.28;;;;;;;1.49;100.00;101044.55;1788711;76;22787;-48
2021/03/01 07:24:34;;;;;;;12.07;9.33;;;;;;;1.44;100.00;101046.28;1786097;79;21475;-49
2021/03/01 07:27:04;;;;;;;12.40;10.18;;;;;;;1.45;100.00;101040.08;1792427;77;21880;-49
2021/03/01 07:29:36;;;;;;;12.23;9.83;;;;;;;1.48;100.00;101036.54;1789295;79;20938;-50
2021/03/01 07:32:13;;;;;;;13.10;9.68;;;;;;;1.53;100.00;101041.02;1794198;79;21000;-49
2021/03/01 07:34:42;;;;;;;12.47;10.40;;;;;;;1.51;100.00;101050.75;1791283;79;20927;-48
2021/03/01 07:37:10;;;;;;;11.80;9.78;;;;;;;1.51;100.00;101045.44;1785287;79;20919;-49
2021/03/01 07:39:40;;;;;;;12.70;9.65;;;;;;;1.54;100.00;101048.09;1782506;79;21017;-49
2021/03/01 07:42:11;;;;;;;11.40;9.00;;;;;;;1.57;100.00;101048.58;1789293;79;21020;-49
2021/03/01 07:44:41;;;;;;;13.60;9.23;;;;;;;1.57;100.00;101042.82;1786733;79;21026;-47
2021/03/01 07:47:09;;;;;;;12.37;8.98;;;;;;;1.58;100.00;101049.91;1754794;79;21171;-46
2021/03/01 07:49:43;;;;;;;12.90;9.08;;;;;;;1.64;100.00;101053.49;1789244;79;21698;-47
2021/03/01 07:52:23;;;;;;;;;;;;;;;1.66;100.00;101049.09;1788628;79;21369;-47
2021/03/01 07:55:05;;;;;;;9.88;8.38;;;;;;;1.74;100.00;101055.34;1781414;79;20153;-47
2021/03/01 07:57:35;;;;;;;13.60;9.83;;;;;;;1.75;100.00;101054.45;1784558;79;21123;-47
2021/03/01 08:00:35;;;;;;;9.70;7.55;;;;;;;1.77;100.00;101063.35;1787194;79;21151;-46
2021/03/01 08:03:35;;;;;;;10.93;7.28;;;;;;;1.77;100.00;101059.36;1783040;79;21527;-47
2021/03/01 08:06:04;;;;;;;11.48;8.40;;;;;;;1.78;100.00;101070.45;1778100;79;21871;-45
2021/03/01 08:08:45;;;;;;;9.50;7.78;;;;;;;1.79;100.00;101072.22;1787985;79;21109;-46
2021/03/01 08:11:13;;;;;;;12.00;8.35;;;;;;;1.81;100.00;101071.77;1790416;79;21129;-48
2021/03/01 08:13:41;;;;;;;9.05;7.28;;;;;;;1.83;100.00;101087.33;1778644;79;21150;-47
2021/03/01 08:16:23;;;;;;;8.80;6.53;;;;;;;1.82;100.00;101085.55;1786733;79;20998;-46
2021/03/01 08:18:57;;;;;;;6.95;6.12;;;;;;;1.80;99.43;101093.94;1784418;79;22226;-47
2021/03/01 08:21:28;;;;;;;6.60;5.78;;;;;;;1.75;99.19;101100.99;1776146;79;21133;-46
2021/03/01 08:23:55;;;;;;;6.97;6.10;;;;;;;1.75;99.26;101089.91;1775486;79;21147;-46
2021/03/01 08:26:32;;;;;;;7.33;6.35;;;;;;;1.77;99.24;101105.46;1781726;79;20947;-47
2021/03/01 08:29:15;;;;;;;7.92;6.37;;;;;;;1.80;99.01;101097.92;1818241;76;22779;-47
2021/03/01 08:31:43;;;;;;;9.63;6.45;;;;;;;1.75;99.17;101103.20;1812068;77;20974;-46
2021/03/01 08:34:27;;;;;;;8.18;6.00;;;;;;;1.77;99.12;101100.58;1826016;77;21324;-46
2021/03/01 08:36:56;;;;;;;8.10;6.37;;;;;;;1.80;98.94;101108.56;1770050;80;20986;-45
2021/03/01 08:39:59;;;;;;;8.73;6.62;;;;;;;1.84;98.68;101109.05;1744088;79;21019;-48
2021/03/01 08:42:50;;;;;;;6.83;5.85;;;;;;;1.88;98.54;101109.53;1768863;79;20981;-48
2021/03/01 08:45:37;;;;;;;8.08;6.40;;;;;;;1.95;98.28;101102.03;1771108;79;20990;-47
2021/03/01 08:48:20;;;;;;;11.25;6.83;;;;;;;2.07;98.16;101112.73;1860945;74;22757;-47
2021/03/01 08:50:50;;;;;;;7.95;6.92;;;;;;;2.09;98.26;101111.44;1857606;74;21445;-46
2021/03/01 08:53:28;;;;;;;7.75;6.00;;;;;;;2.18;97.96;101119.90;1834957;75;22282;-47
2021/03/01 08:55:57;;;;;;;7.22;5.28;;;;;;;2.23;97.72;101120.38;1828865;75;21451;-53
2021/03/01 08:58:30;;;;;;;7.00;5.40;;;;;;;2.23;96.65;101127.47;1830228;75;21557;-46
2021/03/01 09:01:04;;;;;;;6.22;5.60;;;;;;;2.19;96.34;101132.35;1830587;76;21597;-47
2021/03/01 09:03:35;;;;;;;8.40;5.60;;;;;;;2.18;96.34;101116.80;1831026;76;20986;-46
2021/03/01 09:06:12;;;;;;;;;;;;;;;2.22;96.06;101129.69;1833900;75;22113;-45
2021/03/01 09:08:43;;;;;;;6.45;5.75;;;;;;;2.24;95.98;101135.93;1833909;75;20292;-50
2021/03/01 09:11:21;;;;;;;8.25;5.92;;;;;;;2.24;95.72;101143.91;1833194;75;21509;-47
2021/03/01 09:13:53;;;;;;;6.05;5.05;;;;;;;2.27;95.56;101135.93;1829919;75;21012;-50
2021/03/01 09:16:27;;;;;;;6.40;5.78;;;;;;;2.31;95.15;101152.37;1831775;75;21111;-50
2021/03/01 09:19:07;;;;;;;9.43;6.65;;;;;;;2.35;94.51;101143.53;1827891;75;21390;-48
2021/03/01 09:21:44;;;;;;;7.90;6.08;;;;;;;2.43;94.66;101135.13;1812219;76;23341;-48
2021/03/01 09:24:13;;;;;;;9.80;7.50;;;;;;;2.47;94.38;101140.93;1759771;80;20930;-48
2021/03/01 09:26:43;;;;;;;8.08;6.70;;;;;;;2.51;93.99;101142.73;1762424;79;21900;-48
2021/03/01 09:31:54;;;;;;;8.35;5.58;;;;;;;2.67;93.49;101156.13;1833005;76;22668;-48
2021/03/01 09:34:26;;;;;;;7.97;5.95;;;;;;;2.70;92.87;101166.33;1816549;77;20954;-47
2021/03/01 09:36:56;;;;;;;8.08;6.62;;;;;;;2.73;92.07;101158.81;1750112;80;21389;-48
2021/03/01 09:39:26;;;;;;;9.15;6.75;;;;;;;2.75;92.04;101162.36;1747735;80;20995;-48
2021/03/01 09:41:54;;;;;;;8.13;6.87;;;;;;;2.81;91.78;101169.03;1754843;80;21021;-47
2021/03/01 09:44:28;;;;;;;7.15;6.30;;;;;;;2.86;91.91;101168.62;1748409;80;21058;-48
2021/03/01 09:46:57;;;;;;;11.20;7.65;;;;;;;2.90;91.64;101175.74;1753215;80;21124;-45
2021/03/01 09:49:27;;;;;;;10.95;8.15;;;;;;;2.93;91.69;101179.77;1762454;80;21282;-46
2021/03/01 09:51:55;;;;;;;10.43;7.65;;;;;;;2.92;91.51;101184.62;1752252;79;21541;-47
2021/03/01 09:54:27;;;;;;;10.53;7.90;;;;;;;2.94;91.20;101185.54;1748063;80;21038;-45
2021/03/01 09:56:56;;;;;;;14.23;8.00;;;;;;;2.89;90.74;101179.30;1764323;80;20979;-48
2021/03/01 09:59:33;;;;;;;7.87;6.50;;;;;;;2.87;91.07;101181.05;1750138;80;20997;-44
2021/03/01 10:02:18;;;;;;;11.10;7.45;;;;;;;2.85;91.06;101175.72;1748040;80;21371;-44
2021/03/01 10:04:48;;;;;;;8.93;6.78;;;;;;;2.85;90.85;101173.05;1747374;80;21153;-51
2021/03/01 10:07:24;;;;;;;8.38;6.85;;;;;;;2.86;90.69;101181.94;1744793;79;21251;-50
2021/03/01 10:09:55;;;;;;;9.58;7.70;;;;;;;2.84;90.83;101169.06;1775014;79;21180;-51
2021/03/01 10:12:23;;;;;;;9.33;6.45;;;;;;;2.86;90.71;101175.28;1748950;80;21125;-50
2021/03/01 10:14:58;;;;;;;8.90;7.33;;;;;;;2.85;90.53;101174.83;1749190;80;22233;-52
2021/03/01 10:17:33;;;;;;;8.08;6.78;;;;;;;2.84;90.57;101167.73;1776517;79;21145;-52
2021/03/01 10:20:11;;;;;;;7.67;5.80;;;;;;;2.87;90.69;101163.28;1776435;79;21073;-52
2021/03/01 10:23:05;;;;;;;5.20;4.70;;;;;;;3.01;90.54;101174.01;1845029;74;28076;-51
2021/03/01 10:25:40;;;;;;;5.03;4.05;;;;;;;3.07;89.45;101160.70;1832594;75;21005;-54
2021/03/01 10:28:29;;;;;;;5.10;4.25;;;;;;;3.15;88.90;101153.62;1801718;77;22836;-57
2021/03/01 10:31:10;;;;;;;5.35;4.80;;;;;;;3.30;88.34;101147.86;1794026;77;27901;-53
2021/03/01 10:34:04;;;;;;;5.45;4.40;;;;;;;3.27;87.16;101152.76;1783362;78;20978;-52
2021/03/01 10:36:47;;;;;;;5.22;4.37;;;;;;;3.26;86.90;101147.43;1784322;79;22031;-54
2021/03/01 10:39:32;;;;;;;4.78;4.10;;;;;;;3.25;86.80;101148.29;1782839;79;21019;-54
2021/03/01 10:42:12;;;;;;;5.85;4.75;;;;;;;3.29;86.21;101142.97;1783172;79;21041;-54
2021/03/01 10:44:44;;;;;;;;;;;;;;;3.29;85.95;101143.42;1786836;80;22040;-53
2021/03/01 10:47:21;;;;;;;7.78;4.40;;;;;;;3.38;86.12;101158.11;1783581;80;20632;-53
2021/03/01 10:49:53;;;;;;;7.45;5.40;;;;;;;3.43;85.56;101161.67;1783352;80;21375;-52
2021/03/01 10:52:21;;;;;;;9.48;5.55;;;;;;;3.44;85.32;101160.78;1783644;79;21046;-48
2021/03/01 10:54:54;;;;;;;9.75;6.80;;;;;;;3.42;85.13;101166.56;1782283;80;21547;-47
2021/03/01 10:57:24;;;;;;;10.13;7.28;;;;;;;3.45;85.63;101159.88;1782895;78;20987;-46
2021/03/01 10:59:54;;;;;;;9.23;7.40;;;;;;;3.49;85.67;101169.67;1782909;80;21498;-49
2021/03/01 11:02:23;;;;;;;9.60;7.72;;;;;;;3.51;86.01;101162.56;1782381;80;22080;-51
2021/03/01 11:04:51;;;;;;;12.13;9.10;;;;;;;3.47;86.70;101173.25;1783087;80;21011;-49
2021/03/01 11:07:20;;;;;;;9.93;7.62;;;;;;;3.41;87.44;101166.13;1782704;80;21234;-49
2021/03/01 11:09:48;;;;;;;10.15;7.72;;;;;;;3.33;88.12;101167.88;1781290;79;21245;-47
2021/03/01 11:12:16;;;;;;;9.85;7.62;;;;;;;3.23;88.40;101166.08;1782968;80;21547;-49
2021/03/01 11:14:44;;;;;;;12.18;9.45;;;;;;;3.15;88.92;101170.95;1783857;80;21276;-47
2021/03/01 11:17:12;;;;;;;11.15;9.15;;;;;;;3.12;89.39;101166.93;1783983;80;21128;-46
2021/03/01 11:19:41;;;;;;;10.65;7.62;;;;;;;3.13;89.54;101163.82;1782967;80;21011;-47
2021/03/01 11:22:09;;;;;;;9.08;7.42;;;;;;;3.12;89.57;101178.92;1783810;80;21107;-55
2021/03/01 11:24:37;;;;;;;8.48;6.80;;;;;;;3.09;89.54;101166.94;1783134;78;21164;-53
2021/03/01 11:27:05;;;;;;;8.70;7.03;;;;;;;3.11;89.58;101162.49;1784280;78;21384;-53
2021/03/01 11:29:33;;;;;;;8.93;6.90;;;;;;;3.15;89.67;101169.63;1786244;79;20991;-51
2021/03/01 11:32:02;;;;;;;9.35;7.22;;;;;;;3.18;89.64;101162.50;1791991;79;21168;-53
2021/03/01 11:34:30;;;;;;;10.08;7.42;;;;;;;3.16;89.39;101165.17;1790865;79;21564;-52
2021/03/01 11:36:58;;;;;;;9.03;7.00;;;;;;;3.12;89.26;101176.27;1792494;79;21150;-54
2021/03/01 11:39:26;;;;;;;8.80;7.05;;;;;;;3.04;89.14;101175.81;1791936;79;21374;-54
2021/03/01 11:41:54;;;;;;;7.53;6.42;;;;;;;2.97;89.13;101182.87;1791799;78;21010;-53
2021/03/01 11:44:24;;;;;;;7.40;6.20;;;;;;;2.99;89.16;101186.45;1791404;79;21070;-54
2021/03/01 11:46:52;;;;;;;9.20;7.00;;;;;;;3.00;88.96;101169.56;1790993;79;20962;-55
2021/03/01 11:49:20;;;;;;;10.90;7.30;;;;;;;3.04;88.98;101164.70;1791015;80;21160;-55
2021/03/01 11:51:49;;;;;;;9.35;7.33;;;;;;;3.06;88.85;101166.91;1791770;79;21509;-53
2021/03/01 11:54:17;;;;;;;8.65;6.83;;;;;;;3.08;88.77;101170.46;1790933;79;21610;-52
2021/03/01 11:56:46;;;;;;;8.98;7.20;;;;;;;3.07;88.79;101171.36;1788866;79;21685;-50